createdAt,value
2018-10-09T00:00:04.764Z,83.31
2018-10-09T00:01:04.755Z,83.34
2018-10-09T00:02:04.742Z,83.65
2018-10-09T00:03:05.747Z,83.34
2018-10-09T00:04:04.719Z,83.24
2018-10-09T00:05:05.562Z,83.14
2018-10-09T00:06:04.920Z,83.54
2018-10-09T00:07:05.682Z,83.24
2018-10-09T00:08:04.682Z,83.45
2018-10-09T00:09:04.661Z,83.04
2018-10-09T00:10:04.658Z,83.34
2018-10-09T00:11:04.641Z,83.65
2018-10-09T00:12:05.566Z,83.85
2018-10-09T00:13:04.629Z,83.75
2018-10-09T00:14:04.604Z,83.34
2018-10-09T00:15:04.594Z,83.65
2018-10-09T00:16:04.582Z,83.75
2018-10-09T00:17:04.573Z,83.14
2018-10-09T00:18:07.566Z,83.14
2018-10-09T00:19:04.548Z,83.54
2018-10-09T00:21:41.494Z,83.34
2018-10-09T00:24:00.898Z,83.34
2018-10-09T00:26:39.653Z,83.54
2018-10-09T00:27:39.634Z,83.75
2018-10-09T00:28:39.623Z,83.54
2018-10-09T00:29:39.610Z,83.75
2018-10-09T00:30:39.600Z,83.48
2018-10-09T00:31:39.603Z,83.48
2018-10-09T00:32:39.578Z,83.28
2018-10-09T00:33:39.567Z,83.48
2018-10-09T00:34:39.555Z,83.59
2018-10-09T00:35:39.553Z,83.24
2018-10-09T00:36:39.554Z,83.65
2018-10-09T00:37:39.522Z,83.28
2018-10-09T00:38:39.510Z,83.75
2018-10-09T00:39:39.499Z,83.34
2018-10-09T00:40:39.488Z,83.65
2018-10-09T00:41:39.492Z,83.85
2018-10-09T00:42:39.466Z,83.99
2018-10-09T00:43:39.456Z,83.99
2018-10-09T00:44:39.446Z,83.99
2018-10-09T00:45:39.432Z,83.79
2018-10-09T00:46:39.432Z,84.09
2018-10-09T00:47:39.411Z,84.09
2018-10-09T00:48:39.399Z,83.69
2018-10-09T00:49:39.389Z,84.09
2018-10-09T00:50:39.376Z,84.20
2018-10-09T00:51:39.375Z,83.99
2018-10-09T00:52:39.356Z,84.60
2018-10-09T00:53:39.346Z,84.91
2018-10-09T00:54:39.332Z,84.70
2018-10-09T00:55:39.321Z,84.30
2018-10-09T00:56:39.320Z,85.01
2018-10-09T00:57:39.299Z,84.40
2018-10-09T00:58:39.290Z,85.31
2018-10-09T00:59:39.276Z,85.35
2018-10-09T01:00:39.266Z,85.05
2018-10-09T01:01:39.267Z,85.15
2018-10-09T01:02:39.245Z,85.15
2018-10-09T01:03:39.233Z,85.55
2018-10-09T01:04:39.224Z,85.66
2018-10-09T01:05:39.211Z,85.66
2018-10-09T01:06:39.218Z,85.55
2018-10-09T01:07:39.189Z,85.66
2018-10-09T01:08:39.176Z,85.46
2018-10-09T01:09:39.166Z,85.66
2018-10-09T01:10:39.157Z,84.95
2018-10-09T01:11:39.147Z,85.66
2018-10-09T01:12:39.145Z,85.76
2018-10-09T01:13:39.123Z,85.55
2018-10-09T01:14:39.110Z,84.95
2018-10-09T01:15:39.102Z,84.95
2018-10-09T01:16:39.091Z,85.15
2018-10-09T01:17:39.093Z,85.35
2018-10-09T01:18:39.065Z,85.25
2018-10-09T01:19:39.056Z,85.66
2018-10-09T01:20:39.046Z,85.76
2018-10-09T01:21:39.035Z,85.66
2018-10-09T01:22:39.032Z,86.10
2018-10-09T01:23:39.009Z,85.09
2018-10-09T01:24:38.998Z,85.90
2018-10-09T01:25:38.987Z,85.19
2018-10-09T01:26:38.973Z,85.70
2018-10-09T01:27:38.976Z,85.49
2018-10-09T01:28:38.970Z,85.29
2018-10-09T01:29:38.941Z,85.90
2018-10-09T01:30:38.972Z,86.00
2018-10-09T01:32:47.643Z,86.07
2018-10-09T01:33:47.624Z,85.19
2018-10-09T01:34:47.623Z,85.80
2018-10-09T01:35:47.632Z,85.60
2018-10-09T01:36:47.589Z,85.55
2018-10-09T01:37:47.580Z,85.66
2018-10-09T01:38:47.567Z,84.74
2018-10-09T01:45:31.648Z,85.49
2018-10-09T01:46:31.411Z,85.60
2018-10-09T01:47:31.383Z,86.00
2018-10-09T01:48:31.369Z,85.39
2018-10-09T01:49:31.360Z,85.96
2018-10-09T01:50:31.363Z,86.10
2018-10-09T01:51:31.339Z,85.90
2018-10-09T01:52:31.325Z,85.80
2018-10-09T01:53:31.314Z,85.39
2018-10-09T01:54:31.303Z,85.19
2018-10-09T01:55:31.301Z,85.09
2018-10-09T01:58:01.252Z,85.39
2018-10-09T01:58:40.006Z,85.49
2018-10-09T01:59:39.997Z,85.39
2018-10-09T02:00:39.993Z,85.60
2018-10-09T02:01:39.974Z,85.70
2018-10-09T02:02:39.981Z,85.09
2018-10-09T02:03:39.952Z,84.78
2018-10-09T02:05:58.009Z,84.78
2018-10-09T02:06:48.647Z,85.49
2018-10-09T02:07:48.650Z,85.49
2018-10-09T02:08:48.627Z,85.09
2018-10-09T02:09:48.611Z,85.09
2018-10-09T02:10:48.611Z,85.49
2018-10-09T02:11:48.589Z,85.29
2018-10-09T02:12:48.583Z,84.68
2018-10-09T02:13:48.572Z,84.88
2018-10-09T02:14:48.553Z,84.78
2018-10-09T02:15:48.552Z,84.28
2018-10-09T02:16:48.531Z,84.99
2018-10-09T02:17:48.528Z,85.70
2018-10-09T02:18:48.508Z,84.82
2018-10-09T02:19:48.496Z,85.19
2018-10-09T02:20:48.496Z,85.13
2018-10-09T02:21:48.472Z,85.64
2018-10-09T02:22:48.462Z,85.64
2018-10-09T02:23:48.451Z,85.74
2018-10-09T02:24:48.439Z,85.43
2018-10-09T02:25:48.438Z,85.43
2018-10-09T02:26:48.415Z,85.64
2018-10-09T02:27:48.408Z,84.92
2018-10-09T02:28:48.405Z,85.33
2018-10-09T02:29:48.389Z,85.13
2018-10-09T02:30:48.382Z,85.53
2018-10-09T02:31:48.358Z,85.64
2018-10-09T02:32:48.346Z,84.52
2018-10-09T02:33:48.337Z,85.23
2018-10-09T02:34:48.323Z,85.33
2018-10-09T02:35:48.315Z,85.13
2018-10-09T02:38:18.018Z,85.23
2018-10-09T06:32:55.652Z,89.20
2018-10-09T06:35:37.104Z,89.30
2018-10-09T06:36:04.344Z,89.00
2018-10-09T06:37:04.341Z,88.85
2018-10-09T06:38:04.316Z,88.85
2018-10-09T06:39:04.310Z,89.36
2018-10-09T06:40:04.305Z,88.65
2018-10-09T06:41:04.284Z,88.96
2018-10-09T06:42:04.271Z,88.75
2018-10-09T06:43:04.259Z,88.75
2018-10-09T06:44:04.254Z,88.65
2018-10-09T06:45:04.251Z,88.14
2018-10-09T06:46:04.227Z,87.90
2018-10-09T06:47:04.224Z,87.29
2018-10-09T06:48:04.203Z,87.18
2018-10-09T06:49:04.201Z,87.18
2018-10-09T06:50:04.186Z,87.18
2018-10-09T06:51:04.182Z,87.18
2018-10-09T06:52:04.164Z,87.38
2018-10-09T06:53:04.151Z,86.94
2018-10-09T06:54:04.345Z,87.04
2018-10-09T06:55:04.126Z,86.83
2018-10-09T06:56:04.129Z,86.94
2018-10-09T06:57:04.106Z,86.90
2018-10-09T06:58:04.091Z,86.90
2018-10-09T06:59:04.080Z,86.19
2018-10-09T07:00:04.123Z,86.59
2018-10-09T07:01:53.175Z,86.39
2018-10-09T07:02:53.153Z,85.78
2018-10-09T07:03:53.142Z,85.78
2018-10-09T07:04:53.138Z,86.19
2018-10-09T07:05:53.142Z,85.68
2018-10-09T07:06:53.109Z,85.88
2018-10-09T07:07:53.099Z,85.53
2018-10-09T07:08:53.086Z,85.64
2018-10-09T07:10:48.755Z,85.33
2018-10-09T07:11:48.751Z,85.23
2018-10-09T07:12:48.731Z,84.92
2018-10-09T07:13:48.718Z,85.33
2018-10-09T07:14:48.706Z,85.13
2018-10-09T07:15:48.722Z,84.38
2018-10-09T07:16:48.697Z,85.23
2018-10-09T07:17:48.674Z,84.28
2018-10-09T07:18:48.662Z,84.78
2018-10-09T07:19:48.651Z,84.78
2018-10-09T07:20:48.652Z,84.28
2018-10-09T07:21:48.640Z,84.78
2018-10-09T07:22:48.618Z,84.99
2018-10-09T07:23:48.613Z,85.13
2018-10-09T07:24:48.598Z,85.29
2018-10-09T07:25:48.590Z,85.29
2018-10-09T07:26:48.581Z,85.64
2018-10-09T07:27:48.576Z,85.33
2018-10-09T07:28:48.550Z,85.64
2018-10-09T07:29:48.544Z,85.94
2018-10-09T07:30:48.524Z,85.64
2018-10-09T07:31:48.525Z,85.60
2018-10-09T07:32:48.501Z,84.99
2018-10-09T07:33:48.510Z,85.09
2018-10-09T07:34:48.487Z,85.49
2018-10-09T07:35:48.469Z,85.70
2018-10-09T07:36:48.465Z,85.05
2018-10-09T07:37:48.443Z,83.89
2018-10-09T07:38:48.436Z,83.79
2018-10-09T07:41:19.392Z,83.28
2018-10-09T07:41:56.642Z,83.65
2018-10-09T07:42:56.635Z,82.94
2018-10-09T07:43:56.749Z,82.33
2018-10-09T07:44:56.607Z,82.43
2018-10-09T07:45:56.604Z,82.53
2018-10-09T07:46:56.596Z,82.53
2018-10-09T07:47:56.573Z,82.64
2018-10-09T07:48:56.561Z,82.33
2018-10-09T07:49:56.548Z,82.03
2018-10-09T07:50:56.545Z,81.88
2018-10-09T07:51:56.542Z,81.58
2018-10-09T07:52:56.594Z,81.68
2018-10-09T07:53:56.504Z,81.07
2018-10-09T07:54:56.492Z,81.18
2018-10-09T07:55:56.483Z,81.68
2018-10-09T07:56:56.486Z,81.04
2018-10-09T07:57:56.464Z,81.34
2018-10-09T07:58:56.459Z,81.13
2018-10-09T07:59:56.438Z,80.69
2018-10-09T08:00:56.429Z,80.19
2018-10-09T08:04:50.180Z,77.98
2018-10-09T08:05:13.859Z,78.59
2018-10-09T08:06:13.823Z,78.69
2018-10-09T08:07:13.813Z,78.35
2018-10-09T08:08:13.790Z,78.05
2018-10-09T08:09:13.788Z,77.75
2018-10-09T08:10:13.769Z,77.10
2018-10-09T08:11:13.757Z,76.90
2018-10-09T08:12:13.761Z,77.00
2018-10-09T08:13:13.733Z,76.56
2018-10-09T08:14:13.724Z,75.61
2018-10-09T08:15:13.711Z,74.66
2018-10-09T08:16:13.732Z,74.06
2018-10-09T08:17:13.702Z,73.46
2018-10-09T08:18:13.684Z,73.75
2018-10-09T08:21:31.356Z,72.61
2018-10-09T08:22:31.484Z,72.51
2018-10-09T08:23:31.337Z,72.51
2018-10-09T08:24:31.323Z,71.87
2018-10-09T08:25:31.311Z,71.44
2018-10-09T08:26:31.300Z,71.03
2018-10-09T08:27:31.299Z,70.73
2018-10-09T08:28:31.278Z,71.03
2018-10-09T08:29:31.266Z,71.23
2018-10-09T08:30:31.256Z,71.06
2018-10-09T08:31:31.244Z,71.67
2018-10-09T08:32:31.243Z,71.67
2018-10-09T08:33:31.221Z,71.37
2018-10-09T08:34:31.275Z,71.87
2018-10-09T08:35:31.207Z,71.64
2018-10-09T08:36:31.190Z,71.44
2018-10-09T08:37:31.190Z,71.37
2018-10-09T08:38:31.172Z,71.67
2018-10-09T08:39:31.158Z,71.87
2018-10-09T08:40:31.245Z,72.11
2018-10-09T08:41:31.134Z,72.31
2018-10-09T08:42:31.133Z,72.41
2018-10-09T08:43:31.114Z,72.27
2018-10-09T08:44:31.104Z,72.51
2018-10-09T08:45:31.094Z,72.71
2018-10-09T08:46:31.086Z,73.35
2018-10-09T08:47:31.101Z,73.86
2018-10-09T08:48:31.059Z,73.66
2018-10-09T08:49:31.047Z,73.62
2018-10-09T08:50:31.041Z,73.32
2018-10-09T08:51:31.031Z,73.02
2018-10-09T08:52:31.026Z,72.98
2018-10-09T08:53:31.003Z,72.27
2018-10-09T08:54:30.992Z,72.07
2018-10-09T08:55:30.987Z,72.38
2018-10-09T08:58:54.643Z,71.33
2018-10-09T08:59:48.407Z,71.03
2018-10-09T09:00:48.367Z,71.53
2018-10-09T09:01:48.359Z,71.97
2018-10-09T09:11:10.291Z,69.05
2018-10-09T10:01:23.385Z,69.52
2018-10-09T10:02:17.123Z,69.12
2018-10-09T10:03:17.105Z,69.12
2018-10-09T10:04:17.099Z,68.68
2018-10-09T10:05:17.099Z,68.31
2018-10-09T10:06:17.073Z,68.31
2018-10-09T10:07:17.061Z,68.31
2018-10-09T10:08:17.050Z,68.38
2018-10-09T10:09:17.105Z,68.28
2018-10-09T10:10:17.044Z,67.84
2018-10-09T10:13:37.895Z,67.54
2018-10-09T10:14:37.885Z,67.47
2018-10-09T10:15:37.902Z,67.57
2018-10-09T10:16:37.865Z,67.57
2018-10-09T10:17:37.851Z,67.17
2018-10-09T10:18:37.841Z,67.27
2018-10-09T10:19:37.828Z,67.57
2018-10-09T10:20:37.840Z,67.07
2018-10-09T10:21:37.805Z,67.24
2018-10-09T10:22:37.794Z,67.34
2018-10-09T10:23:37.782Z,67.24
2018-10-09T10:24:37.770Z,67.44
2018-10-09T10:25:37.775Z,67.03
2018-10-09T10:26:37.747Z,66.74
2018-10-09T10:27:37.739Z,66.83
2018-10-09T10:28:37.726Z,66.83
2018-10-09T10:29:37.717Z,66.94
2018-10-09T10:30:37.714Z,66.83
2018-10-09T10:31:37.693Z,66.83
2018-10-09T10:32:37.680Z,66.40
2018-10-09T10:33:37.669Z,66.60
2018-10-09T10:34:37.660Z,66.63
2018-10-09T10:35:37.694Z,66.60
2018-10-09T10:36:37.680Z,66.10
2018-10-09T10:37:37.624Z,66.10
2018-10-09T10:38:37.616Z,66.20
2018-10-09T10:39:37.602Z,66.50
2018-10-09T10:40:37.605Z,66.57
2018-10-09T10:41:37.589Z,65.47
2018-10-09T10:42:37.567Z,65.47
2018-10-09T10:43:37.575Z,64.96
2018-10-09T10:44:37.551Z,65.16
2018-10-09T10:45:37.550Z,65.87
2018-10-09T10:46:37.528Z,64.66
2018-10-09T10:47:37.514Z,64.76
2018-10-09T10:48:37.504Z,66.17
2018-10-09T10:49:37.512Z,66.47
2018-10-09T10:50:37.487Z,66.00
2018-10-09T10:51:37.494Z,66.10
2018-10-09T10:52:37.464Z,66.17
2018-10-09T10:53:37.444Z,65.87
2018-10-09T10:54:37.433Z,66.17
2018-10-09T10:55:37.440Z,65.36
2018-10-09T10:56:37.409Z,65.67
2018-10-09T10:57:37.411Z,65.47
2018-10-09T10:58:37.387Z,65.67
2018-10-09T10:59:37.379Z,65.87
2018-10-09T11:00:37.394Z,65.56
2018-10-09T11:01:37.368Z,64.46
2018-10-09T11:02:37.356Z,65.36
2018-10-09T11:03:37.350Z,65.67
2018-10-09T11:04:37.328Z,65.87
2018-10-09T11:05:37.308Z,66.47
2018-10-09T11:06:37.380Z,64.86
2018-10-09T11:07:37.285Z,66.27
2018-10-09T11:08:37.280Z,66.07
2018-10-09T11:09:37.273Z,65.47
2018-10-09T11:10:37.254Z,64.93
2018-10-09T11:11:37.251Z,65.06
2018-10-09T11:12:37.227Z,64.96
2018-10-09T11:13:37.224Z,65.06
2018-10-09T11:14:37.258Z,65.44
2018-10-09T11:15:37.195Z,65.13
2018-10-09T11:16:37.193Z,65.13
2018-10-09T11:17:37.186Z,65.13
2018-10-09T11:18:37.163Z,65.16
2018-10-09T11:19:37.149Z,64.93
2018-10-09T11:20:37.144Z,65.53
2018-10-09T11:21:37.192Z,65.36
2018-10-09T11:22:37.119Z,66.57
2018-10-09T11:23:37.105Z,66.17
2018-10-09T11:24:37.093Z,66.17
2018-10-09T11:25:37.084Z,66.17
2018-10-09T11:26:37.080Z,66.57
2018-10-09T11:27:37.067Z,66.44
2018-10-09T11:28:37.049Z,65.73
2018-10-09T11:29:37.037Z,65.73
2018-10-09T11:30:37.029Z,65.44
2018-10-09T11:31:37.023Z,65.64
2018-10-09T11:32:37.122Z,64.83
2018-10-09T11:33:36.994Z,65.13
2018-10-09T11:34:36.981Z,65.44
2018-10-09T11:35:36.967Z,65.73
2018-10-09T11:36:36.971Z,65.73
2018-10-09T11:37:36.955Z,65.53
2018-10-09T11:38:36.933Z,65.64
2018-10-09T11:39:36.922Z,65.64
2018-10-09T11:40:36.912Z,65.44
2018-10-09T11:41:36.910Z,65.73
2018-10-09T11:42:36.924Z,65.13
2018-10-09T11:43:36.881Z,64.93
2018-10-09T11:44:36.870Z,64.83
2018-10-09T11:45:36.854Z,65.03
2018-10-09T11:46:36.853Z,65.13
2018-10-09T11:47:36.832Z,65.30
2018-10-09T11:48:36.826Z,65.20
2018-10-09T11:49:36.808Z,65.30
2018-10-09T11:50:36.798Z,65.20
2018-10-09T11:51:36.798Z,65.10
2018-10-09T11:52:36.775Z,65.00
2018-10-09T11:53:36.767Z,64.60
2018-10-09T11:54:36.753Z,64.30
2018-10-09T11:55:36.744Z,64.70
2018-10-09T11:56:36.747Z,64.80
2018-10-09T11:57:36.718Z,64.70
2018-10-09T11:58:36.748Z,64.80
2018-10-09T11:59:36.696Z,64.67
2018-10-09T12:00:36.685Z,64.67
2018-10-09T12:01:36.685Z,64.07
2018-10-09T12:02:36.712Z,64.67
2018-10-09T12:03:36.653Z,63.96
2018-10-09T12:04:36.643Z,64.37
2018-10-09T12:05:36.690Z,64.27
2018-10-09T12:06:36.637Z,63.56
2018-10-09T12:07:36.605Z,64.47
2018-10-09T12:08:36.622Z,64.57
2018-10-09T12:09:36.583Z,64.14
2018-10-09T12:10:36.571Z,63.64
2018-10-09T12:11:36.585Z,63.93
2018-10-09T12:12:36.555Z,63.13
2018-10-09T12:13:36.540Z,63.03
2018-10-09T12:14:36.526Z,61.97
2018-10-09T12:15:36.555Z,60.81
2018-10-09T12:16:36.505Z,60.21
2018-10-09T12:17:36.509Z,60.08
2018-10-09T12:18:36.490Z,60.38
2018-10-09T12:19:36.471Z,60.38
2018-10-09T12:20:36.460Z,59.88
2018-10-09T12:21:36.505Z,60.61
2018-10-09T12:22:36.446Z,60.61
2018-10-09T12:23:36.425Z,60.31
2018-10-09T12:24:36.413Z,61.41
2018-10-09T12:25:36.402Z,60.81
2018-10-09T12:26:36.393Z,61.21
2018-10-09T12:27:36.392Z,60.81
2018-10-09T12:28:36.387Z,61.11
2018-10-09T12:29:36.375Z,61.41
2018-10-09T12:30:36.351Z,61.41
2018-10-09T12:31:36.346Z,60.78
2018-10-09T12:32:36.337Z,60.48
2018-10-09T12:33:36.317Z,59.42
2018-10-09T12:34:36.306Z,59.30
2018-10-09T12:35:36.298Z,59.30
2018-10-09T12:36:36.290Z,58.67
2018-10-09T12:37:36.298Z,57.31
2018-10-09T12:38:36.259Z,55.99
2018-10-09T12:39:36.252Z,55.13
2018-10-09T12:40:36.253Z,53.19
2018-10-09T12:41:36.228Z,51.92
2018-10-09T12:42:36.227Z,51.50
2018-10-09T12:43:36.212Z,49.86
2018-10-09T12:44:36.196Z,48.62
2018-10-09T12:45:36.180Z,47.90
2018-10-09T12:46:36.178Z,47.78
2018-10-09T12:47:36.156Z,47.26
2018-10-09T12:48:36.157Z,47.24
2018-10-09T12:49:36.136Z,47.66
2018-10-09T12:50:36.126Z,47.38
2018-10-09T12:51:36.111Z,49.14
2018-10-09T12:52:36.098Z,50.18
2018-10-09T12:53:36.103Z,51.42
2018-10-09T12:54:36.080Z,52.14
2018-10-09T12:55:36.068Z,52.79
2018-10-09T12:56:36.058Z,54.64
2018-10-09T12:57:36.045Z,54.53
2018-10-09T12:58:36.069Z,54.96
2018-10-09T12:59:36.023Z,55.36
2018-10-09T13:00:36.018Z,55.56
2018-10-09T13:01:36.000Z,55.46
2018-10-09T13:02:35.989Z,55.96
2018-10-09T13:03:35.996Z,56.09
2018-10-09T13:06:45.678Z,56.51
2018-10-09T13:07:45.661Z,57.91
2018-10-09T13:08:45.784Z,57.81
2018-10-09T13:09:45.635Z,57.93
2018-10-09T13:10:45.624Z,57.93
2018-10-09T13:11:45.616Z,58.14
2018-10-09T13:15:03.775Z,57.91
2018-10-09T13:17:12.495Z,58.04
2018-10-09T13:18:12.228Z,57.71
2018-10-09T13:19:12.226Z,58.21
2018-10-09T13:20:12.205Z,58.21
2018-10-09T13:21:12.283Z,58.24
2018-10-09T13:22:12.563Z,58.64
2018-10-09T13:23:12.174Z,58.24
2018-10-09T13:24:12.170Z,58.73
2018-10-09T13:25:12.151Z,58.54
2018-10-09T13:26:12.136Z,58.73
2018-10-09T13:27:12.170Z,58.47
2018-10-09T13:28:12.115Z,58.34
2018-10-09T13:30:53.122Z,58.56
2018-10-09T13:31:20.293Z,58.86
2018-10-09T13:32:20.279Z,58.73
2018-10-09T13:33:20.268Z,59.27
2018-10-09T13:34:20.285Z,59.27
2018-10-09T13:35:20.246Z,58.06
2018-10-09T13:36:20.241Z,58.56
2018-10-09T13:37:20.225Z,58.97
2018-10-09T13:38:20.295Z,59.06
2018-10-09T13:39:20.226Z,59.56
2018-10-09T13:41:31.142Z,59.09
2018-10-09T13:42:28.397Z,59.89
2018-10-09T13:43:28.384Z,59.22
2018-10-09T13:44:28.383Z,59.52
2018-10-09T13:45:28.374Z,59.82
2018-10-09T13:46:28.352Z,60.02
2018-10-09T13:47:28.483Z,60.12
2018-10-09T13:48:28.328Z,60.02
2018-10-09T13:49:28.341Z,60.22
2018-10-09T13:50:28.339Z,60.25
2018-10-09T13:51:28.293Z,60.75
2018-10-09T13:52:28.285Z,60.75
2018-10-09T13:53:28.274Z,60.75
2018-10-09T13:54:28.261Z,60.75
2018-10-09T13:55:28.261Z,60.55
2018-10-09T13:56:28.243Z,60.95
2018-10-09T13:57:28.226Z,61.05
2018-10-09T13:58:28.217Z,61.15
2018-10-09T13:59:28.207Z,61.35
2018-10-09T14:01:48.647Z,61.48
2018-10-09T14:04:12.336Z,61.65
2018-10-09T14:04:44.588Z,61.68
2018-10-09T14:08:01.014Z,62.48
2018-10-09T14:09:00.973Z,62.28
2018-10-09T14:10:00.962Z,61.98
2018-10-09T14:11:00.963Z,62.18
2018-10-09T14:12:00.936Z,62.48
2018-10-09T14:13:00.925Z,62.78
2018-10-09T14:15:49.885Z,62.18
2018-10-09T14:16:09.136Z,62.28
2018-10-09T14:17:09.111Z,62.48
2018-10-09T14:18:09.092Z,62.38
2018-10-09T14:19:09.078Z,62.58
2018-10-09T14:20:09.078Z,62.28
2018-10-09T14:21:09.057Z,62.88
2018-10-09T14:22:09.048Z,62.28
2018-10-09T14:23:09.090Z,62.98
2018-10-09T14:24:09.023Z,62.98
2018-10-09T14:25:09.035Z,62.38
2018-10-09T14:26:09.002Z,62.48
2018-10-09T14:27:08.989Z,62.78
2018-10-09T14:28:08.978Z,62.28
2018-10-09T14:29:08.965Z,62.78
2018-10-09T14:30:08.957Z,62.68
2018-10-09T14:31:08.956Z,62.38
2018-10-09T14:32:08.943Z,62.58
2018-10-09T14:33:08.922Z,62.78
2018-10-09T14:34:08.910Z,62.28
2018-10-09T14:35:08.899Z,62.58
2018-10-09T14:36:08.908Z,62.55
2018-10-09T14:37:08.880Z,62.28
2018-10-09T14:38:08.865Z,62.68
2018-10-09T14:39:08.854Z,62.68
2018-10-09T14:40:08.843Z,62.58
2018-10-09T14:41:08.843Z,62.68
2018-10-09T14:42:08.821Z,62.58
2018-10-09T14:43:08.809Z,62.78
2018-10-09T14:44:08.831Z,62.68
2018-10-09T14:45:08.788Z,63.18
2018-10-09T14:46:08.789Z,62.58
2018-10-09T14:47:08.770Z,63.21
2018-10-09T14:48:08.755Z,63.18
2018-10-09T14:49:08.751Z,62.81
2018-10-09T14:50:08.733Z,62.41
2018-10-09T14:51:08.734Z,62.41
2018-10-09T14:52:08.711Z,62.71
2018-10-09T14:53:08.699Z,63.61
2018-10-09T14:54:08.692Z,63.71
2018-10-09T14:55:08.677Z,63.51
2018-10-09T14:56:08.677Z,63.31
2018-10-09T14:57:08.656Z,63.31
2018-10-09T14:58:08.645Z,64.42
2018-10-09T14:59:08.633Z,63.81
2018-10-09T15:00:08.623Z,63.92
2018-10-09T15:01:08.620Z,64.31
2018-10-09T15:02:08.602Z,64.15
2018-10-09T15:03:08.641Z,63.92
2018-10-09T15:04:08.578Z,63.92
2018-10-09T15:05:08.567Z,63.71
2018-10-09T15:06:08.564Z,63.54
2018-10-09T15:07:08.549Z,64.45
2018-10-09T15:08:08.534Z,63.61
2018-10-09T15:09:08.531Z,64.22
2018-10-09T15:10:08.517Z,64.31
2018-10-09T15:11:08.522Z,64.22
2018-10-09T15:12:08.489Z,63.92
2018-10-09T15:13:08.477Z,63.92
2018-10-09T15:14:08.467Z,64.22
2018-10-09T15:15:08.457Z,64.31
2018-10-09T15:16:08.458Z,64.31
2018-10-09T15:17:08.528Z,64.01
2018-10-09T15:18:08.421Z,64.12
2018-10-09T15:19:08.415Z,64.12
2018-10-09T15:20:08.409Z,64.31
2018-10-09T15:21:08.416Z,64.42
2018-10-09T15:22:08.377Z,63.92
2018-10-09T15:23:08.367Z,64.22
2018-10-09T15:24:08.355Z,63.92
2018-10-09T15:25:08.344Z,64.01
2018-10-09T15:26:08.338Z,64.12
2018-10-09T15:27:08.332Z,64.12
2018-10-09T15:28:08.310Z,64.22
2018-10-09T15:29:08.396Z,63.92
2018-10-09T15:30:08.288Z,64.12
2018-10-09T15:31:08.276Z,64.31
2018-10-09T15:32:08.277Z,64.42
2018-10-09T15:33:08.256Z,64.51
2018-10-09T15:34:08.244Z,64.84
2018-10-09T15:35:08.234Z,64.42
2018-10-09T15:36:08.222Z,64.95
2018-10-09T15:37:08.223Z,64.34
2018-10-09T15:38:08.200Z,64.42
2018-10-09T15:39:08.193Z,64.45
2018-10-09T15:40:08.177Z,64.42
2018-10-09T15:41:08.194Z,64.54
2018-10-09T15:42:08.191Z,64.75
2018-10-09T15:43:08.145Z,64.75
2018-10-09T15:44:08.134Z,64.45
2018-10-09T15:45:08.123Z,64.84
2018-10-09T15:46:08.111Z,64.95
2018-10-09T15:47:08.128Z,64.54
2018-10-09T15:48:08.090Z,64.54
2018-10-09T15:49:08.084Z,64.84
2018-10-09T15:50:08.067Z,64.95
2018-10-09T15:51:08.057Z,65.05
2018-10-09T15:52:08.057Z,65.05
2018-10-09T15:53:08.036Z,65.05
2018-10-09T15:54:08.026Z,64.95
2018-10-09T15:55:08.013Z,64.95
2018-10-09T15:56:08.003Z,64.95
2018-10-09T15:57:08.000Z,65.15
2018-10-09T15:58:07.979Z,64.84
2018-10-09T15:59:07.969Z,64.95
2018-10-09T16:00:07.957Z,64.88
2018-10-09T16:01:07.946Z,64.78
2018-10-09T16:02:07.945Z,64.88
2018-10-09T16:03:07.935Z,64.84
2018-10-09T16:04:08.007Z,64.84
2018-10-09T16:05:07.902Z,65.18
2018-10-09T16:07:32.364Z,65.48
2018-10-09T16:08:16.119Z,65.55
2018-10-09T16:09:16.089Z,65.28
2018-10-09T16:10:16.077Z,65.18
2018-10-09T16:11:16.083Z,65.78
2018-10-09T16:12:16.066Z,64.48
2018-10-09T16:13:16.042Z,65.18
2018-10-09T16:14:16.030Z,65.18
2018-10-09T16:15:16.023Z,65.98
2018-10-09T16:16:16.009Z,66.18
2018-10-09T16:17:16.012Z,66.08
2018-10-09T16:18:15.987Z,65.98
2018-10-09T16:19:15.976Z,65.98
2018-10-09T16:20:15.972Z,65.98
2018-10-09T16:21:15.958Z,65.68
2018-10-09T16:22:15.959Z,65.98
2018-10-09T16:23:15.929Z,66.08
2018-10-09T16:24:15.918Z,66.48
2018-10-09T16:25:15.907Z,66.58
2018-10-09T16:26:15.900Z,66.28
2018-10-09T16:28:26.342Z,66.52
2018-10-09T16:29:24.077Z,66.31
2018-10-09T16:30:24.065Z,66.91
2018-10-09T16:31:24.052Z,66.82
2018-10-09T16:32:24.134Z,66.71
2018-10-09T16:33:24.033Z,66.61
2018-10-09T16:34:24.018Z,66.52
2018-10-09T16:35:24.008Z,66.61
2018-10-09T16:36:24.000Z,66.61
2018-10-09T16:37:23.997Z,66.82
2018-10-09T16:38:23.976Z,66.82
2018-10-09T16:39:23.964Z,66.52
2018-10-09T16:40:24.012Z,66.52
2018-10-09T16:41:23.939Z,66.71
2018-10-09T16:42:23.937Z,67.02
2018-10-09T16:43:23.927Z,67.11
2018-10-09T16:44:23.907Z,67.61
2018-10-09T16:45:23.893Z,67.35
2018-10-09T16:46:23.884Z,67.14
2018-10-09T16:47:23.903Z,67.52
2018-10-09T16:48:23.872Z,67.85
2018-10-09T16:49:23.849Z,67.95
2018-10-09T16:50:23.837Z,68.12
2018-10-09T16:51:23.826Z,68.22
2018-10-09T16:52:23.814Z,68.35
2018-10-09T16:53:23.902Z,68.35
2018-10-09T16:54:23.832Z,68.85
2018-10-09T16:55:23.780Z,68.76
2018-10-09T16:56:23.774Z,68.45
2018-10-09T16:57:23.758Z,69.19
2018-10-09T16:58:23.756Z,69.09
2018-10-09T16:59:23.738Z,69.49
2018-10-09T17:00:23.759Z,69.19
2018-10-09T17:01:23.713Z,69.89
2018-10-09T17:02:23.701Z,69.79
2018-10-09T17:03:23.701Z,69.59
2018-10-09T17:04:23.683Z,70.09
2018-10-09T17:05:23.667Z,70.12
2018-10-09T17:06:23.656Z,70.32
2018-10-09T17:07:23.656Z,70.83
2018-10-09T17:08:23.642Z,71.03
2018-10-09T17:09:23.622Z,70.93
2018-10-09T17:10:23.613Z,71.13
2018-10-09T17:11:23.598Z,71.03
2018-10-09T17:12:23.589Z,71.36
2018-10-09T17:13:23.587Z,70.93
2018-10-09T17:14:23.565Z,71.33
2018-10-09T17:15:23.666Z,71.43
2018-10-09T17:16:23.541Z,71.47
2018-10-09T17:17:23.533Z,71.53
2018-10-09T17:20:39.927Z,71.77
2018-10-09T17:21:39.917Z,72.07
2018-10-09T17:24:20.872Z,71.56
2018-10-09T17:24:48.100Z,71.67
2018-10-09T17:25:48.088Z,71.47
2018-10-09T17:26:48.155Z,71.56
2018-10-09T17:27:48.068Z,71.77
2018-10-09T17:28:48.065Z,72.07
2018-10-09T17:29:48.048Z,71.87
2018-10-09T17:30:48.035Z,72.17
2018-10-09T17:31:48.024Z,72.07
2018-10-09T17:32:48.021Z,72.27
2018-10-09T17:33:48.012Z,72.07
2018-10-09T17:34:47.988Z,72.47
2018-10-09T17:35:47.977Z,72.27
2018-10-09T17:36:47.966Z,72.37
2018-10-09T17:37:47.960Z,72.10
2018-10-09T17:38:47.959Z,72.00
2018-10-09T17:39:47.932Z,72.20
2018-10-09T17:40:47.920Z,72.30
2018-10-09T17:41:47.911Z,72.10
2018-10-09T17:42:47.899Z,72.00
2018-10-09T17:43:47.901Z,71.90
2018-10-09T17:44:47.876Z,72.00
2018-10-09T17:45:47.865Z,72.10
2018-10-09T17:46:47.899Z,72.10
2018-10-09T17:51:53.234Z,71.83
2018-10-09T17:52:12.473Z,72.44
2018-10-09T17:53:12.457Z,72.24
2018-10-09T17:54:12.459Z,72.47
2018-10-09T17:55:12.471Z,72.24
2018-10-09T17:56:12.425Z,72.64
2018-10-09T17:57:12.414Z,72.67
2018-10-09T17:58:12.402Z,72.67
2018-10-09T18:00:39.947Z,72.67
2018-10-09T18:01:21.579Z,72.67
2018-10-09T18:02:21.564Z,72.47
2018-10-09T18:03:21.607Z,72.67
2018-10-09T18:04:21.558Z,72.71
2018-10-09T18:05:21.532Z,72.71
2018-10-09T18:08:37.984Z,72.17
2018-10-09T18:09:37.955Z,72.07
2018-10-09T18:10:37.935Z,72.07
2018-10-09T18:11:37.924Z,72.17
2018-10-09T18:12:37.940Z,72.20
2018-10-09T18:13:37.901Z,72.51
2018-10-09T18:14:37.931Z,72.31
2018-10-09T18:15:37.877Z,72.31
2018-10-09T18:16:37.867Z,72.41
2018-10-09T18:17:37.855Z,72.41
2018-10-09T18:18:37.844Z,72.20
2018-10-09T18:19:37.844Z,72.51
2018-10-09T18:20:37.825Z,72.31
2018-10-09T18:21:37.812Z,72.51
2018-10-09T18:22:37.805Z,72.51
2018-10-09T18:23:37.788Z,72.31
2018-10-09T18:24:37.787Z,72.71
2018-10-09T18:25:37.764Z,72.54
2018-10-09T18:26:37.756Z,72.61
2018-10-09T18:27:37.743Z,72.71
2018-10-09T18:28:37.743Z,73.14
2018-10-09T18:29:37.733Z,72.74
2018-10-09T18:30:37.721Z,73.11
2018-10-09T18:31:37.699Z,73.05
2018-10-09T18:32:37.839Z,73.05
2018-10-09T18:33:37.679Z,73.01
2018-10-09T18:34:37.677Z,73.35
2018-10-09T18:35:37.657Z,73.05
2018-10-09T18:36:37.643Z,73.14
2018-10-09T18:37:37.632Z,73.05